createdAt,value
2023-01-13T00:01:31.252Z,9.02
2023-01-13T00:03:59.531Z,8.57
2023-01-13T00:06:28.697Z,8.48
2023-01-13T00:08:57.102Z,6.55
2023-01-13T00:11:26.927Z,6.35
2023-01-13T00:13:55.520Z,6.78
2023-01-13T00:16:23.798Z,8.32
2023-01-13T00:18:54.868Z,8.40
2023-01-13T00:21:25.552Z,10.90
2023-01-13T00:23:55.620Z,10.45
2023-01-13T00:26:27.021Z,10.75
2023-01-13T00:29:00.141Z,7.22
2023-01-13T00:31:30.773Z,7.95
2023-01-13T00:34:03.257Z,6.68
2023-01-13T00:36:32.984Z,4.38
2023-01-13T00:39:01.459Z,9.75
2023-01-13T00:41:50.605Z,6.20
2023-01-13T00:44:19.000Z,6.65
2023-01-13T00:46:47.520Z,5.28
2023-01-13T00:49:15.844Z,6.32
2023-01-13T00:51:44.120Z,10.10
2023-01-13T00:54:12.495Z,5.25
2023-01-13T00:56:41.477Z,9.77
2023-01-13T00:59:13.007Z,6.22
2023-01-13T01:01:42.716Z,5.60
2023-01-13T01:04:12.039Z,8.57
2023-01-13T01:06:40.410Z,7.00
2023-01-13T01:09:08.720Z,7.00
2023-01-13T01:11:37.328Z,7.55
2023-01-13T01:14:05.960Z,8.48
2023-01-13T01:16:35.392Z,7.35
2023-01-13T01:19:04.791Z,10.35
2023-01-13T01:21:33.676Z,6.88
2023-01-13T01:24:04.493Z,9.65
2023-01-13T01:26:33.311Z,10.25
2023-01-13T01:29:03.102Z,8.43
2023-01-13T01:31:33.895Z,8.57
2023-01-13T01:34:03.256Z,10.20
2023-01-13T01:36:31.619Z,8.98
2023-01-13T01:39:01.152Z,9.25
2023-01-13T01:41:32.754Z,8.18
2023-01-13T01:44:28.605Z,9.50
2023-01-13T01:46:57.966Z,9.05
2023-01-13T01:49:33.808Z,8.43
2023-01-13T01:52:10.315Z,8.73
2023-01-13T01:55:09.348Z,8.43
2023-01-13T01:57:40.771Z,11.50
2023-01-13T02:00:10.002Z,8.82
2023-01-13T02:02:39.071Z,8.85
2023-01-13T02:05:07.841Z,10.95
2023-01-13T02:07:38.175Z,8.63
2023-01-13T02:10:10.181Z,7.68
2023-01-13T02:12:39.596Z,10.02
2023-01-13T02:15:14.154Z,8.38
2023-01-13T02:20:50.108Z,11.95
2023-01-13T02:23:55.148Z,9.90
2023-01-13T02:26:53.833Z,9.50
2023-01-13T02:30:26.564Z,6.95
2023-01-13T02:33:25.891Z,7.75
2023-01-13T02:36:35.329Z,9.27
2023-01-13T02:39:17.176Z,9.40
2023-01-13T02:42:16.104Z,11.65
2023-01-13T02:44:49.663Z,9.55
2023-01-13T02:47:23.979Z,8.13
2023-01-13T02:49:57.193Z,8.98
2023-01-13T02:52:48.189Z,9.32
2023-01-13T02:55:23.216Z,11.82
2023-01-13T02:57:53.832Z,11.18
2023-01-13T03:00:24.525Z,8.80
2023-01-13T03:02:52.966Z,10.48
2023-01-13T03:05:21.503Z,7.78
2023-01-13T03:08:08.222Z,7.13
2023-01-13T03:10:50.906Z,15.20
2023-01-13T03:13:37.639Z,13.20
2023-01-13T03:16:22.077Z,8.27
2023-01-13T03:19:15.098Z,11.05
2023-01-13T03:22:06.451Z,8.70
2023-01-13T03:24:43.517Z,8.52
2023-01-13T03:27:17.399Z,11.05
2023-01-13T03:30:01.604Z,10.82
2023-01-13T03:32:38.021Z,9.88
2023-01-13T03:35:11.150Z,11.32
2023-01-13T03:37:43.575Z,9.43
2023-01-13T03:40:19.980Z,10.57
2023-01-13T03:43:12.811Z,6.88
2023-01-13T03:45:42.786Z,10.07
2023-01-13T03:48:17.717Z,7.63
2023-01-13T03:50:54.678Z,6.82
2023-01-13T03:53:31.194Z,5.53
2023-01-13T03:56:31.187Z,5.18
2023-01-13T03:59:03.330Z,8.50
2023-01-13T04:01:45.794Z,6.65
2023-01-13T04:04:37.897Z,7.93
2023-01-13T04:07:25.667Z,9.35
2023-01-13T04:10:03.819Z,7.32
2023-01-13T04:13:05.190Z,10.13
2023-01-13T04:15:40.507Z,7.95
2023-01-13T04:18:18.879Z,7.78
2023-01-13T04:20:50.100Z,11.05
2023-01-13T04:23:20.284Z,7.18
2023-01-13T04:25:49.400Z,9.65
2023-01-13T04:28:19.318Z,6.93
2023-01-13T04:30:48.804Z,7.53
2023-01-13T04:33:18.546Z,9.65
2023-01-13T04:35:48.276Z,15.77
2023-01-13T04:38:19.095Z,11.30
2023-01-13T04:40:48.042Z,11.95
2023-01-13T04:43:16.827Z,9.25
2023-01-13T04:45:45.376Z,9.15
2023-01-13T04:48:13.919Z,7.53
2023-01-13T04:50:42.242Z,9.57
2023-01-13T04:53:10.734Z,12.57
2023-01-13T04:55:39.114Z,10.88
2023-01-13T04:58:10.054Z,4.45
2023-01-13T05:00:39.275Z,9.45
2023-01-13T05:03:07.640Z,7.65
2023-01-13T05:05:35.954Z,8.90
2023-01-13T05:08:04.308Z,6.75
2023-01-13T05:10:32.660Z,12.02
2023-01-13T05:13:19.490Z,6.07
2023-01-13T05:16:06.849Z,8.23
2023-01-13T05:18:35.448Z,6.20
2023-01-13T05:21:03.769Z,5.85
2023-01-13T05:23:50.350Z,6.35
2023-01-13T05:26:18.855Z,5.28
2023-01-13T05:28:47.138Z,11.70
2023-01-13T05:31:15.801Z,7.95
2023-01-13T05:33:44.110Z,4.90
2023-01-13T05:36:12.399Z,3.97
2023-01-13T05:38:40.746Z,6.78
2023-01-13T05:41:35.509Z,7.97
2023-01-13T05:44:03.875Z,4.50
2023-01-13T05:46:32.141Z,4.13
2023-01-13T05:49:01.130Z,4.55
2023-01-13T05:51:29.407Z,5.85
2023-01-13T05:53:57.700Z,6.35
2023-01-13T05:56:26.059Z,6.43
2023-01-13T05:58:54.375Z,6.10
2023-01-13T06:01:22.723Z,6.60
2023-01-13T06:03:51.086Z,5.18
2023-01-13T06:06:19.409Z,8.20
2023-01-13T06:08:47.722Z,4.95
2023-01-13T06:11:16.293Z,4.72
2023-01-13T06:13:44.651Z,5.05
2023-01-13T06:16:13.217Z,5.97
2023-01-13T06:18:41.610Z,6.35
2023-01-13T06:21:09.926Z,6.57
2023-01-13T06:23:39.521Z,5.72
2023-01-13T06:26:19.622Z,4.78
2023-01-13T06:28:47.970Z,4.70
2023-01-13T06:31:16.362Z,4.57
2023-01-13T06:33:50.598Z,2.80
2023-01-13T06:36:23.723Z,2.72
2023-01-13T06:38:56.098Z,3.70
2023-01-13T06:41:44.710Z,6.10
2023-01-13T06:44:13.132Z,4.30
2023-01-13T06:46:41.628Z,3.78
2023-01-13T06:49:10.213Z,5.45
2023-01-13T06:51:38.579Z,3.13
2023-01-13T06:54:07.014Z,3.40
2023-01-13T06:56:35.308Z,1.95
2023-01-13T06:59:03.546Z,5.13
2023-01-13T07:01:32.099Z,2.22
2023-01-13T07:04:00.463Z,3.42
2023-01-13T07:06:29.639Z,3.00
2023-01-13T07:08:57.919Z,4.13
2023-01-13T07:11:26.477Z,1.48
2023-01-13T07:14:13.211Z,3.55
2023-01-13T07:16:42.208Z,2.67
2023-01-13T07:19:10.573Z,5.03
2023-01-13T07:21:39.068Z,3.25
2023-01-13T07:24:07.569Z,2.78
2023-01-13T07:26:35.856Z,3.03
2023-01-13T07:29:04.174Z,2.40
2023-01-13T07:31:32.579Z,3.53
2023-01-13T07:34:01.550Z,2.95
2023-01-13T07:36:29.789Z,3.40
2023-01-13T07:38:58.070Z,2.63
2023-01-13T07:41:44.942Z,3.92
2023-01-13T07:44:13.594Z,3.30
2023-01-13T07:46:41.985Z,3.15
2023-01-13T07:49:10.791Z,2.42
2023-01-13T07:51:40.739Z,3.03
2023-01-13T07:54:09.081Z,1.52
2023-01-13T07:56:37.619Z,2.75
2023-01-13T07:59:06.006Z,2.92
2023-01-13T08:01:34.523Z,2.00
2023-01-13T08:04:03.002Z,3.45
2023-01-13T08:06:31.324Z,1.88
2023-01-13T08:09:00.167Z,2.58
2023-01-13T08:11:28.500Z,3.88
2023-01-13T08:13:58.641Z,1.17
2023-01-13T08:16:27.048Z,1.73
2023-01-13T08:18:55.468Z,3.47
2023-01-13T08:21:23.796Z,3.17
2023-01-13T08:23:52.212Z,5.10
2023-01-13T08:26:20.615Z,5.93
2023-01-13T08:28:48.928Z,1.70
2023-01-13T08:31:18.154Z,4.47
2023-01-13T08:33:46.505Z,0.65
2023-01-13T08:36:14.920Z,0.98
2023-01-13T08:38:43.590Z,3.63
2023-01-13T08:41:37.157Z,3.42
2023-01-13T08:44:06.376Z,2.55
2023-01-13T08:46:34.778Z,3.20
2023-01-13T08:49:03.674Z,0.95
2023-01-13T08:51:31.990Z,3.45
2023-01-13T08:54:00.267Z,1.92
2023-01-13T08:56:28.781Z,2.47
2023-01-13T08:58:59.831Z,1.55
2023-01-13T09:01:28.688Z,3.20
2023-01-13T09:03:57.120Z,1.08
2023-01-13T09:06:25.731Z,1.50
2023-01-13T09:08:54.000Z,2.33
2023-01-13T09:11:48.961Z,2.95
2023-01-13T09:14:22.883Z,1.58
2023-01-13T09:16:51.259Z,3.00
2023-01-13T09:19:19.859Z,2.17
2023-01-13T09:21:48.447Z,1.63
2023-01-13T09:24:16.900Z,2.80
2023-01-13T09:26:45.180Z,1.27
2023-01-13T09:29:13.738Z,2.10
2023-01-13T09:31:44.124Z,1.58
2023-01-13T09:34:34.590Z,0.95
2023-01-13T09:37:03.423Z,1.35
2023-01-13T09:39:32.976Z,1.17
2023-01-13T09:42:24.358Z,4.57
2023-01-13T09:45:00.013Z,3.15
2023-01-13T09:47:37.249Z,1.80
2023-01-13T09:50:23.796Z,1.30
2023-01-13T09:52:52.894Z,1.58
2023-01-13T09:55:34.069Z,3.05
2023-01-13T09:58:15.166Z,3.13
2023-01-13T10:00:51.966Z,2.80
2023-01-13T10:03:22.208Z,1.50
2023-01-13T10:06:47.845Z,3.72
2023-01-13T10:09:52.558Z,1.40
2023-01-13T10:12:44.644Z,1.50
2023-01-13T10:15:18.480Z,3.20
2023-01-13T10:18:14.622Z,3.70
2023-01-13T10:21:14.494Z,0.95
2023-01-13T10:23:59.396Z,1.48
2023-01-13T10:29:28.742Z,1.92
2023-01-13T10:31:58.634Z,1.20
2023-01-13T10:34:28.318Z,0.88
2023-01-13T10:37:07.457Z,0.63
2023-01-13T10:39:44.932Z,2.63
2023-01-13T10:42:23.007Z,3.03
2023-01-13T10:44:56.667Z,3.03
2023-01-13T10:47:29.003Z,2.93
2023-01-13T10:50:14.114Z,1.25
2023-01-13T10:53:03.734Z,1.05
2023-01-13T10:55:35.396Z,1.95
2023-01-13T10:58:22.700Z,1.10
2023-01-13T11:01:01.802Z,1.10
2023-01-13T11:03:50.253Z,0.98
2023-01-13T11:06:31.040Z,1.90
2023-01-13T11:09:00.170Z,3.33
2023-01-13T11:11:48.324Z,0.85
2023-01-13T11:14:37.898Z,3.35
2023-01-13T11:17:46.343Z,1.35
2023-01-13T11:20:21.806Z,1.95
2023-01-13T11:22:58.404Z,0.95
2023-01-13T11:25:42.321Z,1.52
2023-01-13T11:28:36.764Z,1.35
2023-01-13T11:31:25.426Z,1.70
2023-01-13T11:34:20.733Z,2.33
2023-01-13T11:36:53.462Z,2.42
2023-01-13T11:39:35.406Z,2.35
2023-01-13T11:42:23.200Z,0.63
2023-01-13T11:45:08.445Z,2.53
2023-01-13T11:47:37.704Z,2.72
2023-01-13T11:50:20.483Z,2.90
2023-01-13T11:53:07.285Z,1.02
2023-01-13T11:56:07.617Z,1.75
2023-01-13T11:58:51.391Z,1.67
2023-01-13T12:01:36.623Z,2.55
2023-01-13T12:04:34.095Z,2.17
2023-01-13T12:07:33.828Z,1.23
2023-01-13T12:10:03.536Z,2.40
2023-01-13T12:12:48.314Z,2.33
2023-01-13T12:15:23.156Z,1.60
2023-01-13T12:18:09.428Z,2.33
2023-01-13T12:21:14.672Z,3.65
2023-01-13T12:23:48.499Z,1.67
2023-01-13T12:26:19.024Z,1.77
2023-01-13T12:29:16.971Z,2.95
2023-01-13T12:31:48.618Z,2.10
2023-01-13T12:34:34.063Z,2.58
2023-01-13T12:37:18.920Z,2.00
2023-01-13T12:39:56.284Z,1.27
2023-01-13T12:42:58.693Z,1.67
2023-01-13T12:45:31.427Z,1.75
2023-01-13T12:48:02.081Z,1.63
2023-01-13T12:50:31.529Z,1.60
2023-01-13T12:53:02.777Z,4.85
2023-01-13T12:55:38.030Z,3.60
2023-01-13T12:58:10.403Z,4.38
2023-01-13T13:00:42.671Z,0.65
2023-01-13T13:03:19.479Z,2.65
2023-01-13T13:06:16.691Z,0.63
2023-01-13T13:09:06.077Z,0.90
2023-01-13T13:12:00.733Z,2.03
2023-01-13T13:14:41.410Z,3.15
2023-01-13T13:17:30.622Z,1.13
2023-01-13T13:20:01.084Z,1.00
2023-01-13T13:22:29.309Z,3.10
2023-01-13T13:24:58.456Z,0.85
2023-01-13T13:27:38.363Z,2.40
2023-01-13T13:30:19.380Z,1.67
2023-01-13T13:33:05.723Z,1.10
2023-01-13T13:36:00.239Z,2.75
2023-01-13T13:39:20.489Z,1.67
2023-01-13T13:42:09.853Z,1.35
2023-01-13T13:45:02.398Z,0.90
2023-01-13T13:47:38.678Z,1.42
2023-01-13T13:50:14.528Z,2.08
2023-01-13T13:52:59.989Z,2.33
2023-01-13T13:55:30.527Z,1.40
2023-01-13T13:58:00.282Z,1.83
2023-01-13T14:00:35.118Z,0.60
2023-01-13T14:03:05.386Z,2.63
2023-01-13T14:05:38.082Z,1.85
2023-01-13T14:08:19.502Z,0.65
2023-01-13T14:10:47.941Z,1.63
2023-01-13T14:13:31.216Z,1.48
2023-01-13T14:16:12.320Z,0.98
2023-01-13T14:18:49.013Z,1.98
2023-01-13T14:21:25.351Z,0.50
2023-01-13T14:24:21.921Z,2.78
2023-01-13T14:26:54.077Z,2.50
2023-01-13T14:29:24.870Z,3.05
2023-01-13T14:31:55.409Z,2.60
2023-01-13T14:34:32.126Z,1.05
2023-01-13T14:37:02.126Z,5.88
2023-01-13T14:39:40.732Z,2.03
2023-01-13T14:42:15.025Z,2.05
2023-01-13T14:44:47.732Z,3.00
2023-01-13T14:47:22.247Z,3.25
2023-01-13T14:50:19.512Z,1.63
2023-01-13T14:52:57.743Z,0.50
2023-01-13T14:55:42.605Z,1.75
2023-01-13T14:58:23.212Z,1.83
2023-01-13T15:00:52.908Z,3.22
2023-01-13T15:03:22.554Z,2.20
2023-01-13T15:05:53.730Z,2.00
2023-01-13T15:08:33.980Z,1.13
2023-01-13T15:11:25.711Z,2.35
2023-01-13T15:14:02.252Z,0.95
2023-01-13T15:16:34.828Z,3.40
2023-01-13T15:19:04.328Z,2.22
2023-01-13T15:21:32.610Z,1.75
2023-01-13T15:24:00.955Z,2.55
2023-01-13T15:26:31.098Z,3.67
2023-01-13T15:29:01.608Z,2.53
2023-01-13T15:31:30.440Z,1.30
2023-01-13T15:34:00.155Z,1.15
2023-01-13T15:36:31.847Z,1.58
2023-01-13T15:39:01.731Z,2.75
2023-01-13T15:41:48.322Z,2.83
2023-01-13T15:44:36.053Z,2.28
2023-01-13T15:47:08.686Z,0.90
2023-01-13T15:49:39.142Z,2.05
2023-01-13T15:52:24.883Z,0.80
2023-01-13T15:54:54.119Z,4.75
2023-01-13T15:57:28.870Z,1.80
2023-01-13T16:00:13.168Z,2.40
2023-01-13T16:02:41.539Z,1.33
2023-01-13T16:05:09.957Z,2.42
2023-01-13T16:07:38.669Z,2.15
2023-01-13T16:10:16.013Z,0.93
2023-01-13T16:12:44.492Z,1.35
2023-01-13T16:15:23.120Z,1.20
2023-01-13T16:17:57.974Z,1.85
2023-01-13T16:20:27.012Z,2.08
2023-01-13T16:22:55.270Z,1.00
2023-01-13T16:25:28.263Z,2.30
2023-01-13T16:27:56.610Z,0.40
2023-01-13T16:30:31.847Z,1.85
2023-01-13T16:33:00.189Z,1.73
2023-01-13T16:35:29.852Z,1.65
2023-01-13T16:37:59.330Z,1.90
2023-01-13T16:40:31.305Z,2.35
2023-01-13T16:43:01.606Z,2.45
2023-01-13T16:45:30.240Z,3.45
2023-01-13T16:47:58.598Z,1.02
2023-01-13T16:50:34.737Z,1.15
2023-01-13T16:53:03.920Z,1.75
2023-01-13T16:55:32.373Z,2.35
2023-01-13T16:58:00.639Z,1.75
2023-01-13T17:00:29.328Z,1.70
2023-01-13T17:03:02.041Z,2.55
2023-01-13T17:05:30.437Z,1.13
2023-01-13T17:07:58.792Z,0.73
2023-01-13T17:10:27.384Z,1.88
2023-01-13T17:12:56.110Z,3.42
2023-01-13T17:15:25.520Z,3.03
2023-01-13T17:17:56.063Z,3.00
2023-01-13T17:20:24.347Z,1.38
2023-01-13T17:22:58.275Z,2.75
2023-01-13T17:25:27.477Z,1.52
2023-01-13T17:27:55.760Z,1.70
2023-01-13T17:30:24.107Z,1.00
2023-01-13T17:32:52.394Z,1.23
2023-01-13T17:35:25.570Z,1.17
2023-01-13T17:37:54.897Z,0.63
2023-01-13T17:40:23.478Z,1.23
2023-01-13T17:42:51.837Z,0.63
2023-01-13T17:45:20.144Z,2.35
2023-01-13T17:47:48.441Z,1.60
2023-01-13T17:50:18.595Z,0.70
2023-01-13T17:52:46.865Z,2.10
2023-01-13T17:55:15.184Z,2.10
2023-01-13T17:57:43.462Z,1.65
2023-01-13T18:00:13.285Z,1.75
2023-01-13T18:02:41.680Z,3.60
2023-01-13T18:05:10.357Z,1.35
2023-01-13T18:07:38.641Z,1.88
2023-01-13T18:10:07.360Z,2.88
2023-01-13T18:12:35.877Z,1.92
2023-01-13T18:15:04.259Z,2.03
2023-01-13T18:17:32.529Z,1.40
2023-01-13T18:20:18.988Z,2.33
2023-01-13T18:23:05.517Z,1.08
2023-01-13T18:25:52.252Z,1.08
2023-01-13T18:28:20.549Z,2.78
2023-01-13T18:30:49.492Z,2.75
2023-01-13T18:33:17.809Z,2.33
2023-01-13T18:35:46.057Z,4.10
2023-01-13T18:38:24.264Z,3.38
2023-01-13T18:40:52.567Z,2.83
2023-01-13T18:43:20.858Z,2.13
2023-01-13T18:45:52.293Z,2.78
2023-01-13T18:48:20.703Z,1.35
2023-01-13T18:50:48.950Z,1.50
2023-01-13T18:53:17.215Z,2.13
2023-01-13T18:55:46.108Z,2.78
2023-01-13T18:58:14.491Z,2.53
2023-01-13T19:00:42.758Z,2.15
2023-01-13T19:03:11.033Z,1.55
2023-01-13T19:05:39.329Z,3.75
2023-01-13T19:08:07.976Z,1.58
2023-01-13T19:10:38.411Z,2.33
2023-01-13T19:13:06.692Z,0.95
2023-01-13T19:15:38.342Z,1.25
2023-01-13T19:18:06.747Z,3.83
2023-01-13T19:20:35.013Z,6.88
2023-01-13T19:23:03.317Z,3.42
2023-01-13T19:25:31.676Z,2.45
2023-01-13T19:27:59.962Z,3.90
2023-01-13T19:30:28.325Z,3.38
2023-01-13T19:32:57.185Z,2.00
2023-01-13T19:35:25.528Z,4.30
2023-01-13T19:37:54.779Z,3.05
2023-01-13T19:40:27.405Z,1.50
2023-01-13T19:43:13.848Z,4.30
2023-01-13T19:45:42.172Z,1.15
2023-01-13T19:48:10.503Z,4.00
2023-01-13T19:50:42.213Z,2.58
2023-01-13T19:53:18.495Z,3.55
2023-01-13T19:55:49.410Z,1.23
2023-01-13T19:58:23.998Z,2.47
2023-01-13T20:03:27.795Z,1.83
2023-01-13T20:05:56.249Z,1.90
2023-01-13T20:08:24.631Z,5.45
2023-01-13T20:11:12.769Z,5.80
2023-01-13T20:13:41.030Z,2.85
2023-01-13T20:16:09.868Z,2.63
2023-01-13T20:18:38.278Z,3.90
2023-01-13T20:21:07.962Z,2.33
2023-01-13T20:23:36.896Z,2.08
2023-01-13T20:26:09.233Z,4.00
2023-01-13T20:28:39.716Z,2.35
2023-01-13T20:31:12.962Z,2.67
2023-01-13T20:33:41.989Z,3.60
2023-01-13T20:36:27.187Z,3.10
2023-01-13T20:39:02.991Z,3.47
2023-01-13T20:41:49.337Z,1.75
2023-01-13T20:44:17.803Z,5.30
2023-01-13T20:46:46.586Z,3.22
2023-01-13T20:49:16.468Z,1.83
2023-01-13T20:51:44.821Z,3.65
2023-01-13T20:54:13.171Z,3.15
2023-01-13T20:56:41.802Z,4.30
2023-01-13T20:59:10.810Z,3.20
2023-01-13T21:01:39.429Z,1.08
2023-01-13T21:04:08.817Z,2.42
2023-01-13T21:06:37.195Z,2.50
2023-01-13T21:09:05.647Z,1.58
2023-01-13T21:11:51.991Z,2.92
2023-01-13T21:14:41.880Z,3.53
2023-01-13T21:17:32.181Z,1.75
2023-01-13T21:20:01.081Z,2.53
2023-01-13T21:22:30.729Z,2.65
2023-01-13T21:24:59.404Z,1.95
2023-01-13T21:27:27.845Z,3.13
2023-01-13T21:29:56.267Z,1.67
2023-01-13T21:32:25.084Z,1.58
2023-01-13T21:34:53.368Z,2.00
2023-01-13T21:37:21.754Z,2.15
2023-01-13T21:39:50.112Z,2.15
2023-01-13T21:42:37.078Z,2.42
2023-01-13T21:45:24.086Z,2.55
2023-01-13T21:47:52.936Z,1.40
2023-01-13T21:50:23.364Z,3.47
2023-01-13T21:52:53.527Z,0.85
2023-01-13T21:55:29.264Z,0.63
2023-01-13T21:57:59.883Z,0.82
2023-01-13T22:00:30.933Z,1.05
2023-01-13T22:03:01.967Z,1.60
2023-01-13T22:05:30.504Z,0.55
2023-01-13T22:07:58.854Z,1.25
2023-01-13T22:10:30.725Z,0.50
2023-01-13T22:13:01.186Z,0.73
2023-01-13T22:15:32.043Z,3.15
2023-01-13T22:18:01.039Z,1.27
2023-01-13T22:20:29.293Z,2.28
2023-01-13T22:22:59.049Z,2.15
2023-01-13T22:25:27.785Z,1.92
2023-01-13T22:28:04.341Z,1.10
2023-01-13T22:30:33.423Z,0.88
2023-01-13T22:33:02.062Z,1.25
2023-01-13T22:35:30.397Z,0.90
2023-01-13T22:37:59.780Z,1.50
2023-01-13T22:40:28.240Z,1.80
2023-01-13T22:42:56.495Z,1.52
2023-01-13T22:45:24.744Z,0.88
2023-01-13T22:47:53.051Z,2.67
2023-01-13T22:50:23.588Z,2.10
2023-01-13T22:52:51.889Z,1.40
2023-01-13T22:55:20.269Z,1.25
2023-01-13T22:57:48.673Z,0.80
2023-01-13T23:00:19.685Z,1.00
2023-01-13T23:02:48.449Z,2.35
2023-01-13T23:05:16.803Z,1.30
2023-01-13T23:07:45.122Z,1.75
2023-01-13T23:10:13.464Z,2.20
2023-01-13T23:12:41.803Z,1.25
2023-01-13T23:15:10.617Z,1.23
2023-01-13T23:17:38.903Z,0.73
2023-01-13T23:20:07.470Z,2.15
2023-01-13T23:22:39.451Z,1.27
2023-01-13T23:25:08.704Z,2.63
2023-01-13T23:27:37.561Z,2.38
2023-01-13T23:30:08.557Z,2.22
2023-01-13T23:32:37.587Z,1.20
2023-01-13T23:35:06.205Z,4.63
2023-01-13T23:37:35.243Z,2.20
2023-01-13T23:40:03.920Z,1.92
2023-01-13T23:42:32.548Z,2.63
2023-01-13T23:45:00.864Z,4.38
2023-01-13T23:47:29.813Z,3.30
2023-01-13T23:49:58.183Z,5.78
2023-01-13T23:52:26.559Z,3.05
2023-01-13T23:54:54.871Z,3.35
2023-01-13T23:57:23.172Z,4.53
2023-01-13T23:59:51.450Z,4.18
